sensor_id;sensor_type;location;lat;lon;timestamp;P1;durP1;ratioP1;P2;durP2;ratioP2
35715;SDS011;21840;44.920;8.616;2023-04-01T00:00:56;56.65;;;16.20;;
35715;SDS011;21840;44.920;8.616;2023-04-01T00:03:23;49.95;;;16.08;;
35715;SDS011;21840;44.920;8.616;2023-04-01T00:05:49;44.38;;;15.43;;
35715;SDS011;21840;44.920;8.616;2023-04-01T00:08:15;38.63;;;14.15;;
35715;SDS011;21840;44.920;8.616;2023-04-01T00:10:41;26.67;;;14.52;;
35715;SDS011;21840;44.920;8.616;2023-04-01T00:13:06;32.38;;;14.95;;
35715;SDS011;21840;44.920;8.616;2023-04-01T00:15:32;35.67;;;15.93;;
35715;SDS011;21840;44.920;8.616;2023-04-01T00:17:58;29.52;;;16.35;;
35715;SDS011;21840;44.920;8.616;2023-04-01T00:20:24;29.52;;;17.27;;
35715;SDS011;21840;44.920;8.616;2023-04-01T00:22:49;35.97;;;16.65;;
35715;SDS011;21840;44.920;8.616;2023-04-01T00:25:15;30.63;;;16.80;;
35715;SDS011;21840;44.920;8.616;2023-04-01T00:27:41;29.83;;;15.30;;
35715;SDS011;21840;44.920;8.616;2023-04-01T00:30:07;29.77;;;15.63;;
35715;SDS011;21840;44.920;8.616;2023-04-01T00:32:34;29.02;;;15.48;;
35715;SDS011;21840;44.920;8.616;2023-04-01T00:35:00;27.83;;;14.20;;
35715;SDS011;21840;44.920;8.616;2023-04-01T00:37:26;29.00;;;14.15;;
35715;SDS011;21840;44.920;8.616;2023-04-01T00:39:54;27.95;;;13.43;;
35715;SDS011;21840;44.920;8.616;2023-04-01T00:42:20;26.38;;;13.43;;
35715;SDS011;21840;44.920;8.616;2023-04-01T00:44:48;26.65;;;13.05;;
35715;SDS011;21840;44.920;8.616;2023-04-01T00:47:16;27.08;;;13.00;;
35715;SDS011;21840;44.920;8.616;2023-04-01T00:49:44;24.25;;;13.13;;
35715;SDS011;21840;44.920;8.616;2023-04-01T00:52:15;25.67;;;13.32;;
35715;SDS011;21840;44.920;8.616;2023-04-01T00:54:46;24.08;;;13.50;;
35715;SDS011;21840;44.920;8.616;2023-04-01T00:57:21;23.15;;;13.50;;
35715;SDS011;21840;44.920;8.616;2023-04-01T00:59:54;27.50;;;14.60;;
35715;SDS011;21840;44.920;8.616;2023-04-01T01:02:22;21.55;;;13.65;;
35715;SDS011;21840;44.920;8.616;2023-04-01T01:04:48;28.00;;;15.15;;
35715;SDS011;21840;44.920;8.616;2023-04-01T01:12:24;25.38;;;15.68;;
35715;SDS011;21840;44.920;8.616;2023-04-01T01:36:34;22.55;;;12.48;;
35715;SDS011;21840;44.920;8.616;2023-04-01T01:39:02;22.33;;;12.38;;
35715;SDS011;21840;44.920;8.616;2023-04-01T01:41:30;23.13;;;12.52;;
35715;SDS011;21840;44.920;8.616;2023-04-01T01:43:57;23.08;;;12.80;;
35715;SDS011;21840;44.920;8.616;2023-04-01T01:46:25;17.23;;;10.52;;
35715;SDS011;21840;44.920;8.616;2023-04-01T01:48:52;21.25;;;8.80;;
35715;SDS011;21840;44.920;8.616;2023-04-01T01:51:20;15.00;;;7.93;;
35715;SDS011;21840;44.920;8.616;2023-04-01T01:53:48;12.82;;;7.25;;
35715;SDS011;21840;44.920;8.616;2023-04-01T01:56:16;12.35;;;6.63;;
35715;SDS011;21840;44.920;8.616;2023-04-01T01:58:45;16.17;;;7.15;;
35715;SDS011;21840;44.920;8.616;2023-04-01T02:01:19;15.50;;;6.55;;
35715;SDS011;21840;44.920;8.616;2023-04-01T02:03:49;12.38;;;6.22;;
35715;SDS011;21840;44.920;8.616;2023-04-01T02:06:19;14.75;;;6.47;;
35715;SDS011;21840;44.920;8.616;2023-04-01T02:11:21;13.32;;;6.90;;
35715;SDS011;21840;44.920;8.616;2023-04-01T02:13:56;12.48;;;7.72;;
35715;SDS011;21840;44.920;8.616;2023-04-01T02:16:32;15.80;;;8.60;;
35715;SDS011;21840;44.920;8.616;2023-04-01T02:19:01;17.45;;;8.30;;
35715;SDS011;21840;44.920;8.616;2023-04-01T02:21:32;15.97;;;8.73;;
35715;SDS011;21840;44.920;8.616;2023-04-01T02:24:00;19.85;;;9.27;;
35715;SDS011;21840;44.920;8.616;2023-04-01T02:26:29;15.90;;;9.02;;
35715;SDS011;21840;44.920;8.616;2023-04-01T02:28:56;16.02;;;8.95;;
35715;SDS011;21840;44.920;8.616;2023-04-01T02:31:24;20.55;;;10.82;;
35715;SDS011;21840;44.920;8.616;2023-04-01T02:33:50;15.10;;;10.02;;
35715;SDS011;21840;44.920;8.616;2023-04-01T02:36:17;17.15;;;10.07;;
35715;SDS011;21840;44.920;8.616;2023-04-01T02:38:44;22.20;;;11.38;;
35715;SDS011;21840;44.920;8.616;2023-04-01T02:41:11;25.33;;;11.02;;
35715;SDS011;21840;44.920;8.616;2023-04-01T02:43:37;21.60;;;11.20;;
35715;SDS011;21840;44.920;8.616;2023-04-01T02:46:03;19.75;;;10.63;;
35715;SDS011;21840;44.920;8.616;2023-04-01T02:48:28;18.17;;;11.20;;
35715;SDS011;21840;44.920;8.616;2023-04-01T02:50:54;22.48;;;10.80;;
35715;SDS011;21840;44.920;8.616;2023-04-01T02:53:21;19.27;;;10.10;;
35715;SDS011;21840;44.920;8.616;2023-04-01T02:55:47;23.25;;;11.23;;
35715;SDS011;21840;44.920;8.616;2023-04-01T02:58:15;15.02;;;9.48;;
35715;SDS011;21840;44.920;8.616;2023-04-01T03:00:41;14.77;;;9.90;;
35715;SDS011;21840;44.920;8.616;2023-04-01T03:03:07;18.02;;;9.93;;
35715;SDS011;21840;44.920;8.616;2023-04-01T03:05:33;13.35;;;9.60;;
35715;SDS011;21840;44.920;8.616;2023-04-01T03:07:59;18.73;;;10.05;;
35715;SDS011;21840;44.920;8.616;2023-04-01T03:10:24;14.07;;;9.90;;
35715;SDS011;21840;44.920;8.616;2023-04-01T03:12:50;14.73;;;10.90;;
35715;SDS011;21840;44.920;8.616;2023-04-01T03:15:16;14.00;;;10.23;;
35715;SDS011;21840;44.920;8.616;2023-04-01T03:17:42;15.63;;;10.60;;
35715;SDS011;21840;44.920;8.616;2023-04-01T03:20:09;14.27;;;9.70;;
35715;SDS011;21840;44.920;8.616;2023-04-01T03:22:36;18.63;;;10.32;;
35715;SDS011;21840;44.920;8.616;2023-04-01T03:25:03;15.30;;;10.75;;
35715;SDS011;21840;44.920;8.616;2023-04-01T03:27:31;15.60;;;10.52;;
35715;SDS011;21840;44.920;8.616;2023-04-01T03:29:56;17.63;;;11.18;;
35715;SDS011;21840;44.920;8.616;2023-04-01T03:32:22;15.02;;;10.80;;
35715;SDS011;21840;44.920;8.616;2023-04-01T03:34:48;18.48;;;10.60;;
35715;SDS011;21840;44.920;8.616;2023-04-01T03:37:13;16.50;;;10.02;;
35715;SDS011;21840;44.920;8.616;2023-04-01T03:39:39;14.10;;;9.85;;
35715;SDS011;21840;44.920;8.616;2023-04-01T03:42:05;15.63;;;9.45;;
35715;SDS011;21840;44.920;8.616;2023-04-01T03:44:32;19.20;;;10.40;;
35715;SDS011;21840;44.920;8.616;2023-04-01T03:46:59;12.85;;;9.27;;
35715;SDS011;21840;44.920;8.616;2023-04-01T03:49:25;18.42;;;10.55;;
35715;SDS011;21840;44.920;8.616;2023-04-01T03:51:51;17.13;;;11.32;;
35715;SDS011;21840;44.920;8.616;2023-04-01T03:54:17;19.42;;;10.98;;
35715;SDS011;21840;44.920;8.616;2023-04-01T03:56:45;18.83;;;10.02;;
35715;SDS011;21840;44.920;8.616;2023-04-01T03:59:11;16.60;;;9.85;;
35715;SDS011;21840;44.920;8.616;2023-04-01T04:01:36;17.08;;;10.63;;
35715;SDS011;21840;44.920;8.616;2023-04-01T04:04:02;18.50;;;10.38;;
35715;SDS011;21840;44.920;8.616;2023-04-01T04:06:28;19.25;;;10.02;;
35715;SDS011;21840;44.920;8.616;2023-04-01T04:08:53;16.58;;;9.82;;
35715;SDS011;21840;44.920;8.616;2023-04-01T04:11:20;22.40;;;10.40;;
35715;SDS011;21840;44.920;8.616;2023-04-01T04:13:49;16.10;;;9.55;;
35715;SDS011;21840;44.920;8.616;2023-04-01T04:16:15;15.82;;;8.48;;
35715;SDS011;21840;44.920;8.616;2023-04-01T04:18:45;17.80;;;8.85;;
35715;SDS011;21840;44.920;8.616;2023-04-01T04:21:12;18.95;;;10.20;;
35715;SDS011;21840;44.920;8.616;2023-04-01T04:23:40;20.00;;;9.32;;
35715;SDS011;21840;44.920;8.616;2023-04-01T04:26:06;15.30;;;9.23;;
35715;SDS011;21840;44.920;8.616;2023-04-01T04:28:33;19.83;;;7.95;;
35715;SDS011;21840;44.920;8.616;2023-04-01T04:31:00;11.90;;;7.72;;
35715;SDS011;21840;44.920;8.616;2023-04-01T04:33:26;14.73;;;7.22;;
35715;SDS011;21840;44.920;8.616;2023-04-01T04:35:54;12.57;;;6.70;;
35715;SDS011;21840;44.920;8.616;2023-04-01T04:38:22;10.95;;;8.00;;
35715;SDS011;21840;44.920;8.616;2023-04-01T04:40:48;13.98;;;8.18;;
35715;SDS011;21840;44.920;8.616;2023-04-01T04:43:16;13.18;;;8.25;;
35715;SDS011;21840;44.920;8.616;2023-04-01T04:45:42;11.98;;;7.85;;
35715;SDS011;21840;44.920;8.616;2023-04-01T04:48:09;15.23;;;8.63;;
35715;SDS011;21840;44.920;8.616;2023-04-01T04:50:40;18.65;;;8.88;;
35715;SDS011;21840;44.920;8.616;2023-04-01T04:53:05;15.77;;;8.15;;
35715;SDS011;21840;44.920;8.616;2023-04-01T04:55:32;12.75;;;7.93;;
35715;SDS011;21840;44.920;8.616;2023-04-01T04:58:15;14.68;;;7.35;;
35715;SDS011;21840;44.920;8.616;2023-04-01T05:00:43;10.40;;;6.80;;
35715;SDS011;21840;44.920;8.616;2023-04-01T05:03:17;10.88;;;6.72;;
35715;SDS011;21840;44.920;8.616;2023-04-01T05:05:51;9.93;;;6.45;;
35715;SDS011;21840;44.920;8.616;2023-04-01T05:08:19;10.23;;;5.93;;
35715;SDS011;21840;44.920;8.616;2023-04-01T05:10:45;6.80;;;4.65;;
35715;SDS011;21840;44.920;8.616;2023-04-01T05:13:12;13.60;;;5.97;;
35715;SDS011;21840;44.920;8.616;2023-04-01T05:15:40;9.30;;;5.70;;
35715;SDS011;21840;44.920;8.616;2023-04-01T05:18:06;12.30;;;6.60;;
35715;SDS011;21840;44.920;8.616;2023-04-01T05:20:32;11.90;;;7.28;;
35715;SDS011;21840;44.920;8.616;2023-04-01T05:22:58;12.57;;;6.20;;
35715;SDS011;21840;44.920;8.616;2023-04-01T05:25:25;11.32;;;6.38;;
35715;SDS011;21840;44.920;8.616;2023-04-01T05:27:51;15.68;;;7.05;;
35715;SDS011;21840;44.920;8.616;2023-04-01T05:30:17;9.60;;;6.13;;
35715;SDS011;21840;44.920;8.616;2023-04-01T05:32:56;11.93;;;6.47;;
35715;SDS011;21840;44.920;8.616;2023-04-01T05:35:22;13.93;;;6.35;;
35715;SDS011;21840;44.920;8.616;2023-04-01T05:37:49;13.45;;;5.72;;
35715;SDS011;21840;44.920;8.616;2023-04-01T05:40:15;13.55;;;6.25;;
35715;SDS011;21840;44.920;8.616;2023-04-01T05:42:40;13.77;;;6.70;;
35715;SDS011;21840;44.920;8.616;2023-04-01T05:45:06;13.43;;;6.65;;
35715;SDS011;21840;44.920;8.616;2023-04-01T05:48:04;11.68;;;6.65;;
35715;SDS011;21840;44.920;8.616;2023-04-01T05:50:39;14.32;;;7.20;;
35715;SDS011;21840;44.920;8.616;2023-04-01T05:53:05;16.80;;;6.75;;
35715;SDS011;21840;44.920;8.616;2023-04-01T05:55:30;9.52;;;5.72;;
35715;SDS011;21840;44.920;8.616;2023-04-01T05:57:56;10.50;;;5.47;;
35715;SDS011;21840;44.920;8.616;2023-04-01T06:00:22;8.35;;;5.50;;
35715;SDS011;21840;44.920;8.616;2023-04-01T06:02:48;10.63;;;6.55;;
35715;SDS011;21840;44.920;8.616;2023-04-01T06:05:18;14.80;;;6.35;;
35715;SDS011;21840;44.920;8.616;2023-04-01T06:07:47;11.00;;;6.25;;
35715;SDS011;21840;44.920;8.616;2023-04-01T06:10:15;11.68;;;5.80;;
35715;SDS011;21840;44.920;8.616;2023-04-01T06:13:19;10.65;;;5.00;;
35715;SDS011;21840;44.920;8.616;2023-04-01T06:15:47;11.65;;;4.75;;
35715;SDS011;21840;44.920;8.616;2023-04-01T06:23:45;14.88;;;4.35;;
35715;SDS011;21840;44.920;8.616;2023-04-01T06:54:55;3.88;;;2.10;;
35715;SDS011;21840;44.920;8.616;2023-04-01T06:57:56;7.35;;;2.20;;
35715;SDS011;21840;44.920;8.616;2023-04-01T07:00:34;5.32;;;2.20;;
35715;SDS011;21840;44.920;8.616;2023-04-01T07:03:05;6.20;;;2.83;;
35715;SDS011;21840;44.920;8.616;2023-04-01T07:05:35;5.20;;;1.50;;
35715;SDS011;21840;44.920;8.616;2023-04-01T07:08:03;2.88;;;1.90;;
35715;SDS011;21840;44.920;8.616;2023-04-01T07:13:53;3.75;;;2.60;;
35715;SDS011;21840;44.920;8.616;2023-04-01T07:16:29;5.68;;;2.50;;
35715;SDS011;21840;44.920;8.616;2023-04-01T07:22:00;9.20;;;2.20;;
35715;SDS011;21840;44.920;8.616;2023-04-01T07:24:48;4.90;;;1.83;;
35715;SDS011;21840;44.920;8.616;2023-04-01T07:27:14;14.27;;;5.90;;
35715;SDS011;21840;44.920;8.616;2023-04-01T07:29:41;7.45;;;2.50;;
35715;SDS011;21840;44.920;8.616;2023-04-01T07:45:40;3.63;;;1.00;;
35715;SDS011;21840;44.920;8.616;2023-04-01T07:48:23;0.98;;;0.65;;
35715;SDS011;21840;44.920;8.616;2023-04-01T07:51:03;1.83;;;0.95;;
35715;SDS011;21840;44.920;8.616;2023-04-01T07:56:26;5.57;;;1.77;;
35715;SDS011;21840;44.920;8.616;2023-04-01T08:10:54;10.00;;;0.93;;
35715;SDS011;21840;44.920;8.616;2023-04-01T08:13:54;2.05;;;0.80;;
35715;SDS011;21840;44.920;8.616;2023-04-01T08:17:05;0.90;;;0.50;;
35715;SDS011;21840;44.920;8.616;2023-04-01T08:32:05;3.25;;;1.42;;
35715;SDS011;21840;44.920;8.616;2023-04-01T08:34:21;4.72;;;0.90;;
35715;SDS011;21840;44.920;8.616;2023-04-01T08:36:53;1.48;;;0.80;;
35715;SDS011;21840;44.920;8.616;2023-04-01T08:39:34;5.28;;;1.25;;
35715;SDS011;21840;44.920;8.616;2023-04-01T08:42:07;20.42;;;1.52;;
35715;SDS011;21840;44.920;8.616;2023-04-01T08:48:07;7.07;;;1.02;;
35715;SDS011;21840;44.920;8.616;2023-04-01T08:51:03;4.60;;;0.60;;
35715;SDS011;21840;44.920;8.616;2023-04-01T08:56:40;10.52;;;1.20;;
35715;SDS011;21840;44.920;8.616;2023-04-01T09:10:46;4.40;;;0.73;;
35715;SDS011;21840;44.920;8.616;2023-04-01T09:17:20;3.42;;;0.90;;
35715;SDS011;21840;44.920;8.616;2023-04-01T09:22:41;1.75;;;0.73;;
35715;SDS011;21840;44.920;8.616;2023-04-01T09:25:19;2.92;;;0.90;;
35715;SDS011;21840;44.920;8.616;2023-04-01T09:35:47;29.67;;;1.77;;
35715;SDS011;21840;44.920;8.616;2023-04-01T09:38:53;11.63;;;1.05;;
35715;SDS011;21840;44.920;8.616;2023-04-01T09:41:14;4.60;;;0.80;;
35715;SDS011;21840;44.920;8.616;2023-04-01T09:44:21;0.95;;;0.75;;
35715;SDS011;21840;44.920;8.616;2023-04-01T10:15:50;1.40;;;0.70;;
35715;SDS011;21840;44.920;8.616;2023-04-01T10:30:03;2.55;;;1.15;;
35715;SDS011;21840;44.920;8.616;2023-04-01T10:41:22;1.90;;;0.80;;
35715;SDS011;21840;44.920;8.616;2023-04-01T10:44:56;11.15;;;1.15;;
35715;SDS011;21840;44.920;8.616;2023-04-01T10:53:18;19.13;;;1.95;;
35715;SDS011;21840;44.920;8.616;2023-04-01T11:06:30;3.90;;;0.40;;
35715;SDS011;21840;44.920;8.616;2023-04-01T11:26:04;3.33;;;0.65;;
35715;SDS011;21840;44.920;8.616;2023-04-01T11:29:11;7.15;;;0.60;;
35715;SDS011;21840;44.920;8.616;2023-04-01T11:56:07;2.55;;;0.75;;
35715;SDS011;21840;44.920;8.616;2023-04-01T12:02:03;2.50;;;0.40;;
35715;SDS011;21840;44.920;8.616;2023-04-01T12:12:38;7.15;;;0.60;;
35715;SDS011;21840;44.920;8.616;2023-04-01T12:17:54;0.65;;;0.38;;
35715;SDS011;21840;44.920;8.616;2023-04-01T12:23:13;0.50;;;0.40;;
35715;SDS011;21840;44.920;8.616;2023-04-01T12:25:53;0.90;;;0.70;;
35715;SDS011;21840;44.920;8.616;2023-04-01T12:28:23;2.38;;;0.40;;
35715;SDS011;21840;44.920;8.616;2023-04-01T12:31:06;3.08;;;0.47;;
35715;SDS011;21840;44.920;8.616;2023-04-01T12:53:14;0.90;;;0.55;;
35715;SDS011;21840;44.920;8.616;2023-04-01T12:56:02;3.70;;;0.68;;
35715;SDS011;21840;44.920;8.616;2023-04-01T13:15:09;0.57;;;0.30;;
35715;SDS011;21840;44.920;8.616;2023-04-01T13:34:45;0.50;;;0.40;;
35715;SDS011;21840;44.920;8.616;2023-04-01T13:43:23;0.43;;;0.30;;
35715;SDS011;21840;44.920;8.616;2023-04-01T13:56:47;1.98;;;0.30;;
35715;SDS011;21840;44.920;8.616;2023-04-01T14:05:01;3.72;;;0.43;;
35715;SDS011;21840;44.920;8.616;2023-04-01T14:07:47;1.52;;;0.30;;
35715;SDS011;21840;44.920;8.616;2023-04-01T14:10:19;0.30;;;0.30;;
35715;SDS011;21840;44.920;8.616;2023-04-01T14:32:24;2.92;;;0.32;;
35715;SDS011;21840;44.920;8.616;2023-04-01T14:40:54;0.40;;;0.40;;
35715;SDS011;21840;44.920;8.616;2023-04-01T14:43:39;1.27;;;0.30;;
35715;SDS011;21840;44.920;8.616;2023-04-01T14:49:04;0.45;;;0.40;;
35715;SDS011;21840;44.920;8.616;2023-04-01T14:51:38;2.53;;;0.50;;
35715;SDS011;21840;44.920;8.616;2023-04-01T14:56:51;0.22;;;0.22;;
35715;SDS011;21840;44.920;8.616;2023-04-01T14:59:34;0.38;;;0.38;;
35715;SDS011;21840;44.920;8.616;2023-04-01T15:02:18;0.28;;;0.28;;
35715;SDS011;21840;44.920;8.616;2023-04-01T15:24:07;0.40;;;0.40;;
35715;SDS011;21840;44.920;8.616;2023-04-01T15:38:34;3.45;;;0.70;;
35715;SDS011;21840;44.920;8.616;2023-04-01T15:48:58;3.03;;;0.57;;
35715;SDS011;21840;44.920;8.616;2023-04-01T15:51:28;0.80;;;0.40;;
35715;SDS011;21840;44.920;8.616;2023-04-01T16:00:02;1.27;;;0.52;;
35715;SDS011;21840;44.920;8.616;2023-04-01T16:11:28;1.83;;;0.50;;
35715;SDS011;21840;44.920;8.616;2023-04-01T16:19:51;2.67;;;0.40;;
35715;SDS011;21840;44.920;8.616;2023-04-01T16:30:59;0.77;;;0.30;;
35715;SDS011;21840;44.920;8.616;2023-04-01T16:33:34;0.70;;;0.43;;
35715;SDS011;21840;44.920;8.616;2023-04-01T16:36:09;6.10;;;0.57;;
35715;SDS011;21840;44.920;8.616;2023-04-01T16:41:17;1.63;;;1.33;;
35715;SDS011;21840;44.920;8.616;2023-04-01T16:43:53;1.35;;;0.73;;
35715;SDS011;21840;44.920;8.616;2023-04-01T16:46:32;2.22;;;0.77;;
35715;SDS011;21840;44.920;8.616;2023-04-01T16:59:40;3.10;;;1.02;;
35715;SDS011;21840;44.920;8.616;2023-04-01T17:04:45;1.48;;;1.00;;
35715;SDS011;21840;44.920;8.616;2023-04-01T17:07:22;6.28;;;1.00;;
35715;SDS011;21840;44.920;8.616;2023-04-01T17:16:14;6.82;;;0.98;;
35715;SDS011;21840;44.920;8.616;2023-04-01T17:21:25;1.30;;;0.90;;
35715;SDS011;21840;44.920;8.616;2023-04-01T17:27:06;2.95;;;1.08;;
35715;SDS011;21840;44.920;8.616;2023-04-01T17:43:23;3.53;;;0.90;;
35715;SDS011;21840;44.920;8.616;2023-04-01T17:46:00;4.30;;;1.48;;
35715;SDS011;21840;44.920;8.616;2023-04-01T17:48:45;4.68;;;1.95;;
35715;SDS011;21840;44.920;8.616;2023-04-01T18:04:29;3.88;;;1.70;;
35715;SDS011;21840;44.920;8.616;2023-04-01T18:12:51;4.90;;;1.20;;
35715;SDS011;21840;44.920;8.616;2023-04-01T18:15:40;8.88;;;2.00;;
35715;SDS011;21840;44.920;8.616;2023-04-01T18:23:58;8.95;;;2.97;;
35715;SDS011;21840;44.920;8.616;2023-04-01T18:26:36;10.85;;;3.05;;
35715;SDS011;21840;44.920;8.616;2023-04-01T18:35:17;15.07;;;3.83;;
35715;SDS011;21840;44.920;8.616;2023-04-01T18:38:06;10.88;;;3.60;;
35715;SDS011;21840;44.920;8.616;2023-04-01T18:40:42;10.18;;;3.70;;
35715;SDS011;21840;44.920;8.616;2023-04-01T18:45:58;8.05;;;2.70;;
35715;SDS011;21840;44.920;8.616;2023-04-01T18:48:36;5.45;;;3.15;;
35715;SDS011;21840;44.920;8.616;2023-04-01T18:51:21;11.27;;;3.00;;
35715;SDS011;21840;44.920;8.616;2023-04-01T18:54:00;10.95;;;3.28;;
35715;SDS011;21840;44.920;8.616;2023-04-01T18:56:35;8.77;;;3.47;;
35715;SDS011;21840;44.920;8.616;2023-04-01T19:10:12;5.32;;;2.17;;
35715;SDS011;21840;44.920;8.616;2023-04-01T19:15:22;7.75;;;2.78;;
35715;SDS011;21840;44.920;8.616;2023-04-01T19:32:13;8.40;;;3.10;;
35715;SDS011;21840;44.920;8.616;2023-04-01T19:37:54;4.77;;;1.57;;
35715;SDS011;21840;44.920;8.616;2023-04-01T19:40:55;3.08;;;1.30;;
35715;SDS011;21840;44.920;8.616;2023-04-01T19:57:05;6.00;;;2.05;;
35715;SDS011;21840;44.920;8.616;2023-04-01T19:59:46;4.13;;;1.70;;
35715;SDS011;21840;44.920;8.616;2023-04-01T20:02:38;3.88;;;1.90;;
35715;SDS011;21840;44.920;8.616;2023-04-01T20:08:16;5.07;;;1.90;;
35715;SDS011;21840;44.920;8.616;2023-04-01T20:16:08;6.78;;;2.35;;
35715;SDS011;21840;44.920;8.616;2023-04-01T20:18:41;8.07;;;2.88;;
35715;SDS011;21840;44.920;8.616;2023-04-01T20:23:54;8.27;;;2.67;;
35715;SDS011;21840;44.920;8.616;2023-04-01T20:34:36;8.48;;;2.10;;
35715;SDS011;21840;44.920;8.616;2023-04-01T20:51:04;10.50;;;2.38;;
35715;SDS011;21840;44.920;8.616;2023-04-01T20:59:03;7.40;;;2.38;;
35715;SDS011;21840;44.920;8.616;2023-04-01T21:01:44;10.07;;;3.20;;
35715;SDS011;21840;44.920;8.616;2023-04-01T21:07:09;11.27;;;2.55;;
35715;SDS011;21840;44.920;8.616;2023-04-01T21:42:41;4.15;;;1.45;;
35715;SDS011;21840;44.920;8.616;2023-04-01T21:45:46;7.38;;;1.65;;
35715;SDS011;21840;44.920;8.616;2023-04-01T21:51:22;7.63;;;2.05;;
35715;SDS011;21840;44.920;8.616;2023-04-01T21:54:21;6.68;;;1.98;;
35715;SDS011;21840;44.920;8.616;2023-04-01T21:56:57;5.63;;;1.63;;
35715;SDS011;21840;44.920;8.616;2023-04-01T22:02:41;5.13;;;1.73;;
35715;SDS011;21840;44.920;8.616;2023-04-01T22:05:21;4.07;;;1.80;;
35715;SDS011;21840;44.920;8.616;2023-04-01T22:07:59;6.53;;;1.65;;
35715;SDS011;21840;44.920;8.616;2023-04-01T22:10:41;6.65;;;1.73;;
35715;SDS011;21840;44.920;8.616;2023-04-01T22:13:16;5.88;;;2.00;;
35715;SDS011;21840;44.920;8.616;2023-04-01T22:24:32;13.40;;;2.35;;
35715;SDS011;21840;44.920;8.616;2023-04-01T22:32:20;5.03;;;1.95;;
35715;SDS011;21840;44.920;8.616;2023-04-01T22:34:55;9.25;;;2.20;;
35715;SDS011;21840;44.920;8.616;2023-04-01T22:37:51;7.25;;;2.78;;
35715;SDS011;21840;44.920;8.616;2023-04-01T22:43:11;9.38;;;2.17;;
35715;SDS011;21840;44.920;8.616;2023-04-01T22:51:01;6.75;;;2.00;;
35715;SDS011;21840;44.920;8.616;2023-04-01T22:54:06;9.02;;;2.70;;
35715;SDS011;21840;44.920;8.616;2023-04-01T22:56:51;7.65;;;1.85;;
35715;SDS011;21840;44.920;8.616;2023-04-01T22:59:25;6.03;;;2.08;;
35715;SDS011;21840;44.920;8.616;2023-04-01T23:04:52;8.07;;;2.20;;
35715;SDS011;21840;44.920;8.616;2023-04-01T23:13:22;7.18;;;2.30;;
35715;SDS011;21840;44.920;8.616;2023-04-01T23:15:52;16.73;;;2.47;;
35715;SDS011;21840;44.920;8.616;2023-04-01T23:18:22;5.60;;;1.73;;
35715;SDS011;21840;44.920;8.616;2023-04-01T23:34:03;14.68;;;3.30;;
35715;SDS011;21840;44.920;8.616;2023-04-01T23:39:31;10.13;;;2.45;;
35715;SDS011;21840;44.920;8.616;2023-04-01T23:44:28;13.30;;;2.50;;
35715;SDS011;21840;44.920;8.616;2023-04-01T23:46:56;9.95;;;2.58;;
35715;SDS011;21840;44.920;8.616;2023-04-01T23:49:37;11.05;;;2.17;;
35715;SDS011;21840;44.920;8.616;2023-04-01T23:52:20;11.55;;;2.15;;
35715;SDS011;21840;44.920;8.616;2023-04-01T23:54:59;10.63;;;2.17;;
35715;SDS011;21840;44.920;8.616;2023-04-01T23:57:34;10.65;;;2.83;;
